map of BXH home
BXH - Airport
Location
City:  Balkhash, Qaraghandy, Kazakhstan
Near (Alt.):Balqash
Name:Balkhash Airport
ICAO:UAAH
IATA:BXH

Details
Type:Airport (Aerodrome, Airfield)
Use:Public/Civil
Latitude:4653'38"N (46.893889)
Longitude:7500'19"E (75.005278)
Elevation:1444 ft (440 m)
Variation:7.05E (WMM2015 magnetic declination)
0.04 annual change
Runways:1
Longest:8209 × 131 ft (2502 × 40 m), paved

Time
Time Zone:UTC+6 (DST+7)

Weather
METAR:UAAH 170930Z 07003MPS CAVOK M06/M09 Q1028 NOSIG RMK QFE733/0978

Related Locations
Nearby:
Farthest:IPC: 11048 mi / 17781 km
Easter Island (Isla de Pascua, Rapa Nui) [Mataveri Intl], VS, CL

Find:

   beyond  
but within

Other Information
Maps:
NOTAMs:
Links:
Sources:

  
  • flag of Kazakhstan
  

Sectional Chart

Flight Planning
at skyvector.com

Satellite Image

Google Maps Satellite view

 

Copyright © 2004-2018 Karl L. Swartz. All rights reserved.
The Great Circle Mapper name and logo are trademarks of the Great Circle Mapper.
All other trademarks mentioned herein belong to their respective owners.
Please see credits for attibutions and further copyright information.

  Follow gcmap on Facebook Follow gcmap on Twitter Follow gcmap on Google+ GCmap on LinkedIn

hCard Microformat

Geo Microformat